createdAt,value
2022-12-08T07:10:21.002Z,0
2022-12-08T07:15:30.916Z,0
2022-12-08T07:20:40.694Z,0
2022-12-08T07:25:50.448Z,0
2022-12-08T07:31:00.245Z,0
2022-12-08T07:36:10.514Z,0
2022-12-08T07:41:20.899Z,0
2022-12-08T07:46:30.888Z,5
2022-12-08T07:51:40.873Z,5
2022-12-08T07:56:50.786Z,5
2022-12-08T08:02:00.555Z,5
2022-12-08T08:07:10.329Z,5
2022-12-08T08:12:20.599Z,5
2022-12-08T08:17:30.357Z,11
2022-12-08T08:22:40.635Z,5
2022-12-08T08:27:50.406Z,11
2022-12-08T08:33:00.182Z,5
2022-12-08T08:38:09.942Z,5
2022-12-08T08:43:19.728Z,5
2022-12-08T08:48:29.489Z,5
2022-12-08T08:53:39.276Z,16
2022-12-08T08:58:48.539Z,22
2022-12-08T09:03:58.808Z,28
2022-12-08T09:09:09.081Z,39
2022-12-08T09:14:19.356Z,39
2022-12-08T09:19:29.630Z,45
2022-12-08T09:24:39.905Z,50
2022-12-08T09:29:50.177Z,56
2022-12-08T09:35:00.448Z,61
2022-12-08T09:40:10.701Z,67
2022-12-08T09:45:20.976Z,61
2022-12-08T09:50:31.255Z,67
2022-12-08T09:55:41.523Z,78
2022-12-08T10:00:51.798Z,78
2022-12-08T10:06:02.076Z,73
2022-12-08T10:11:12.340Z,84
2022-12-08T10:16:22.623Z,78
2022-12-08T10:21:32.879Z,73
2022-12-08T10:26:43.152Z,73
2022-12-08T10:31:53.427Z,73
2022-12-08T10:37:03.702Z,73
2022-12-08T10:42:13.974Z,78
2022-12-08T10:47:24.255Z,73
2022-12-08T10:52:34.522Z,67
2022-12-08T10:57:44.794Z,61
2022-12-08T11:02:55.069Z,61
2022-12-08T11:08:05.341Z,56
2022-12-08T11:13:15.609Z,45
2022-12-08T11:18:25.876Z,45
2022-12-08T11:23:36.145Z,50
2022-12-08T11:28:46.424Z,39
2022-12-08T11:33:56.690Z,39
2022-12-08T11:39:06.960Z,45
2022-12-08T11:44:17.241Z,39
2022-12-08T11:49:27.524Z,39
2022-12-08T11:54:37.793Z,33
2022-12-08T11:59:48.061Z,33
2022-12-08T12:04:58.335Z,28
2022-12-08T12:10:08.610Z,28
2022-12-08T12:15:18.886Z,33
2022-12-08T12:20:29.158Z,33
2022-12-08T12:25:39.415Z,39
2022-12-08T12:30:49.685Z,39
2022-12-08T12:35:59.957Z,45
2022-12-08T12:41:10.230Z,45
2022-12-08T12:46:20.506Z,45
2022-12-08T12:51:30.773Z,45
2022-12-08T12:56:41.060Z,45
2022-12-08T13:01:51.457Z,45
2022-12-08T13:07:01.941Z,39
2022-12-08T13:12:12.429Z,39
2022-12-08T13:17:22.822Z,39
2022-12-08T13:22:33.085Z,39
2022-12-08T13:27:43.359Z,33
2022-12-08T13:32:53.649Z,28
2022-12-08T13:38:04.045Z,28
2022-12-08T13:43:14.529Z,28
2022-12-08T13:48:25.005Z,22
2022-12-08T13:53:35.406Z,22
2022-12-08T13:58:45.678Z,22
2022-12-08T14:03:55.953Z,22
2022-12-08T14:09:06.211Z,22
2022-12-08T14:14:16.496Z,16
2022-12-08T14:19:26.766Z,22
2022-12-08T14:24:37.159Z,22
2022-12-08T14:29:47.643Z,16
2022-12-08T14:34:58.118Z,16
2022-12-08T14:40:08.534Z,11
2022-12-08T14:45:18.804Z,11
2022-12-08T14:50:29.072Z,5
2022-12-08T14:55:39.337Z,5
2022-12-08T15:00:49.629Z,5
2022-12-08T15:05:59.901Z,5
2022-12-08T15:11:10.284Z,0
2022-12-08T15:16:20.778Z,0
2022-12-08T15:21:31.242Z,0
2022-12-08T15:26:41.661Z,0
2022-12-08T15:31:51.921Z,0
2022-12-08T15:37:02.196Z,0
2022-12-08T15:42:12.473Z,0
2022-12-08T15:47:22.754Z,0
2022-12-08T15:52:33.021Z,0
2022-12-08T15:57:43.286Z,0
2022-12-08T16:02:53.551Z,0
2022-12-08T16:08:03.952Z,0
2022-12-08T16:13:14.446Z,0
2022-12-08T16:18:24.923Z,0
2022-12-08T16:23:35.324Z,0
2022-12-08T16:28:45.593Z,0
2022-12-08T16:33:55.871Z,0
2022-12-08T16:39:06.132Z,0
2022-12-08T16:44:16.403Z,0
2022-12-08T16:49:26.677Z,0
2022-12-08T16:54:36.956Z,0
2022-12-08T16:59:47.230Z,0
2022-12-08T17:04:57.491Z,0
2022-12-08T17:10:07.766Z,0
2022-12-08T17:15:18.050Z,0
2022-12-08T17:20:28.331Z,0
2022-12-08T17:25:38.589Z,0
